sensor_id;sensor_type;location;lat;lon;timestamp;P1;durP1;ratioP1;P2;durP2;ratioP2
21215;SDS011;10765;50.954;5.322;2022-10-16T00:00:35;2.67;;;1.27;;
21215;SDS011;10765;50.954;5.322;2022-10-16T00:03:04;1.43;;;0.93;;
21215;SDS011;10765;50.954;5.322;2022-10-16T00:05:32;2.23;;;1.00;;
21215;SDS011;10765;50.954;5.322;2022-10-16T00:08:03;1.13;;;1.00;;
21215;SDS011;10765;50.954;5.322;2022-10-16T00:10:30;1.53;;;1.00;;
21215;SDS011;10765;50.954;5.322;2022-10-16T00:12:59;3.67;;;1.17;;
21215;SDS011;10765;50.954;5.322;2022-10-16T00:15:26;3.50;;;1.20;;
21215;SDS011;10765;50.954;5.322;2022-10-16T00:17:52;2.30;;;1.10;;
21215;SDS011;10765;50.954;5.322;2022-10-16T00:20:19;1.83;;;1.00;;
21215;SDS011;10765;50.954;5.322;2022-10-16T00:22:46;1.33;;;1.23;;
21215;SDS011;10765;50.954;5.322;2022-10-16T00:25:13;1.40;;;1.10;;
21215;SDS011;10765;50.954;5.322;2022-10-16T00:27:40;1.57;;;1.10;;
21215;SDS011;10765;50.954;5.322;2022-10-16T00:30:09;2.17;;;1.10;;
21215;SDS011;10765;50.954;5.322;2022-10-16T00:32:36;1.53;;;1.17;;
21215;SDS011;10765;50.954;5.322;2022-10-16T00:35:03;1.77;;;1.03;;
21215;SDS011;10765;50.954;5.322;2022-10-16T00:37:31;0.93;;;0.80;;
21215;SDS011;10765;50.954;5.322;2022-10-16T00:39:57;1.63;;;0.90;;
21215;SDS011;10765;50.954;5.322;2022-10-16T00:42:24;2.73;;;0.93;;
21215;SDS011;10765;50.954;5.322;2022-10-16T00:44:53;2.70;;;1.10;;
21215;SDS011;10765;50.954;5.322;2022-10-16T00:47:24;1.00;;;0.90;;
21215;SDS011;10765;50.954;5.322;2022-10-16T00:49:55;1.10;;;0.83;;
21215;SDS011;10765;50.954;5.322;2022-10-16T00:52:26;2.60;;;0.87;;
21215;SDS011;10765;50.954;5.322;2022-10-16T00:54:53;2.60;;;0.70;;
21215;SDS011;10765;50.954;5.322;2022-10-16T00:57:21;2.97;;;1.00;;
21215;SDS011;10765;50.954;5.322;2022-10-16T00:59:49;1.70;;;1.00;;
21215;SDS011;10765;50.954;5.322;2022-10-16T01:02:16;2.83;;;0.93;;
21215;SDS011;10765;50.954;5.322;2022-10-16T01:04:46;0.97;;;0.80;;
21215;SDS011;10765;50.954;5.322;2022-10-16T01:07:16;1.00;;;0.80;;
21215;SDS011;10765;50.954;5.322;2022-10-16T01:09:57;1.53;;;0.80;;
21215;SDS011;10765;50.954;5.322;2022-10-16T01:12:38;2.70;;;0.90;;
21215;SDS011;10765;50.954;5.322;2022-10-16T01:15:11;2.63;;;0.90;;
21215;SDS011;10765;50.954;5.322;2022-10-16T01:17:45;2.27;;;0.93;;
21215;SDS011;10765;50.954;5.322;2022-10-16T01:20:20;2.83;;;0.90;;
21215;SDS011;10765;50.954;5.322;2022-10-16T01:25:49;2.60;;;0.90;;
21215;SDS011;10765;50.954;5.322;2022-10-16T01:28:28;1.07;;;0.90;;
21215;SDS011;10765;50.954;5.322;2022-10-16T01:31:00;1.13;;;0.90;;
21215;SDS011;10765;50.954;5.322;2022-10-16T01:33:30;2.27;;;0.90;;
21215;SDS011;10765;50.954;5.322;2022-10-16T01:36:02;3.00;;;0.90;;
21215;SDS011;10765;50.954;5.322;2022-10-16T01:38:36;2.20;;;1.00;;
21215;SDS011;10765;50.954;5.322;2022-10-16T01:41:06;1.97;;;1.00;;
21215;SDS011;10765;50.954;5.322;2022-10-16T01:43:39;3.03;;;0.90;;
21215;SDS011;10765;50.954;5.322;2022-10-16T01:46:09;2.10;;;1.10;;
21215;SDS011;10765;50.954;5.322;2022-10-16T01:48:38;1.80;;;1.13;;
21215;SDS011;10765;50.954;5.322;2022-10-16T01:51:08;4.27;;;1.03;;
21215;SDS011;10765;50.954;5.322;2022-10-16T01:53:37;5.77;;;1.20;;
21215;SDS011;10765;50.954;5.322;2022-10-16T01:56:06;1.53;;;0.80;;
21215;SDS011;10765;50.954;5.322;2022-10-16T01:58:40;2.87;;;1.10;;
21215;SDS011;10765;50.954;5.322;2022-10-16T02:01:11;1.53;;;1.10;;
21215;SDS011;10765;50.954;5.322;2022-10-16T02:03:41;0.90;;;0.90;;
21215;SDS011;10765;50.954;5.322;2022-10-16T02:06:09;1.87;;;1.07;;
21215;SDS011;10765;50.954;5.322;2022-10-16T02:08:36;2.77;;;0.90;;
21215;SDS011;10765;50.954;5.322;2022-10-16T02:11:03;4.07;;;1.37;;
21215;SDS011;10765;50.954;5.322;2022-10-16T02:13:32;2.27;;;1.40;;
21215;SDS011;10765;50.954;5.322;2022-10-16T02:16:03;1.83;;;1.70;;
21215;SDS011;10765;50.954;5.322;2022-10-16T02:18:31;2.20;;;1.53;;
21215;SDS011;10765;50.954;5.322;2022-10-16T02:20:59;2.33;;;1.30;;
21215;SDS011;10765;50.954;5.322;2022-10-16T02:23:31;3.23;;;1.30;;
21215;SDS011;10765;50.954;5.322;2022-10-16T02:26:04;1.47;;;1.17;;
21215;SDS011;10765;50.954;5.322;2022-10-16T02:28:35;1.53;;;1.30;;
21215;SDS011;10765;50.954;5.322;2022-10-16T02:31:09;2.57;;;1.57;;
21215;SDS011;10765;50.954;5.322;2022-10-16T02:33:37;3.03;;;1.50;;
21215;SDS011;10765;50.954;5.322;2022-10-16T02:36:08;1.60;;;1.50;;
21215;SDS011;10765;50.954;5.322;2022-10-16T02:38:35;2.97;;;1.20;;
21215;SDS011;10765;50.954;5.322;2022-10-16T02:41:03;2.70;;;1.43;;
21215;SDS011;10765;50.954;5.322;2022-10-16T02:43:30;1.50;;;1.40;;
21215;SDS011;10765;50.954;5.322;2022-10-16T02:45:58;1.97;;;1.13;;
21215;SDS011;10765;50.954;5.322;2022-10-16T02:48:27;1.83;;;0.90;;
21215;SDS011;10765;50.954;5.322;2022-10-16T02:50:53;1.77;;;1.03;;
21215;SDS011;10765;50.954;5.322;2022-10-16T02:53:22;4.17;;;1.10;;
21215;SDS011;10765;50.954;5.322;2022-10-16T02:55:49;1.53;;;1.30;;
21215;SDS011;10765;50.954;5.322;2022-10-16T02:58:15;1.97;;;1.10;;
21215;SDS011;10765;50.954;5.322;2022-10-16T03:00:42;1.47;;;1.00;;
21215;SDS011;10765;50.954;5.322;2022-10-16T03:03:09;2.20;;;1.20;;
21215;SDS011;10765;50.954;5.322;2022-10-16T03:05:37;2.60;;;1.43;;
21215;SDS011;10765;50.954;5.322;2022-10-16T03:08:04;2.27;;;0.90;;
21215;SDS011;10765;50.954;5.322;2022-10-16T03:10:31;2.17;;;1.07;;
21215;SDS011;10765;50.954;5.322;2022-10-16T03:12:58;3.03;;;1.20;;
21215;SDS011;10765;50.954;5.322;2022-10-16T03:15:25;1.50;;;1.10;;
21215;SDS011;10765;50.954;5.322;2022-10-16T03:17:53;1.40;;;1.30;;
21215;SDS011;10765;50.954;5.322;2022-10-16T03:20:20;1.87;;;1.20;;
21215;SDS011;10765;50.954;5.322;2022-10-16T03:22:48;2.13;;;1.20;;
21215;SDS011;10765;50.954;5.322;2022-10-16T03:25:15;2.60;;;1.07;;
21215;SDS011;10765;50.954;5.322;2022-10-16T03:27:42;1.23;;;1.13;;
21215;SDS011;10765;50.954;5.322;2022-10-16T03:30:09;1.67;;;1.20;;
21215;SDS011;10765;50.954;5.322;2022-10-16T03:32:36;3.20;;;1.30;;
21215;SDS011;10765;50.954;5.322;2022-10-16T03:35:03;2.57;;;1.20;;
21215;SDS011;10765;50.954;5.322;2022-10-16T03:37:30;2.47;;;1.13;;
21215;SDS011;10765;50.954;5.322;2022-10-16T03:39:59;2.17;;;1.37;;
21215;SDS011;10765;50.954;5.322;2022-10-16T03:42:25;2.60;;;1.47;;
21215;SDS011;10765;50.954;5.322;2022-10-16T03:44:52;3.27;;;1.30;;
21215;SDS011;10765;50.954;5.322;2022-10-16T03:47:19;1.27;;;1.13;;
21215;SDS011;10765;50.954;5.322;2022-10-16T03:49:48;1.57;;;1.27;;
21215;SDS011;10765;50.954;5.322;2022-10-16T03:52:15;1.63;;;1.40;;
21215;SDS011;10765;50.954;5.322;2022-10-16T03:54:42;2.23;;;1.60;;
21215;SDS011;10765;50.954;5.322;2022-10-16T03:57:10;4.23;;;1.53;;
21215;SDS011;10765;50.954;5.322;2022-10-16T03:59:37;2.60;;;1.50;;
21215;SDS011;10765;50.954;5.322;2022-10-16T04:02:04;3.33;;;1.60;;
21215;SDS011;10765;50.954;5.322;2022-10-16T04:04:31;2.73;;;1.50;;
21215;SDS011;10765;50.954;5.322;2022-10-16T04:06:58;2.30;;;1.90;;
21215;SDS011;10765;50.954;5.322;2022-10-16T04:09:25;4.50;;;1.70;;
21215;SDS011;10765;50.954;5.322;2022-10-16T04:11:52;1.60;;;1.50;;
21215;SDS011;10765;50.954;5.322;2022-10-16T04:14:20;2.93;;;1.57;;
21215;SDS011;10765;50.954;5.322;2022-10-16T04:16:47;2.47;;;1.70;;
21215;SDS011;10765;50.954;5.322;2022-10-16T04:19:14;2.07;;;1.80;;
21215;SDS011;10765;50.954;5.322;2022-10-16T04:21:41;3.10;;;2.00;;
21215;SDS011;10765;50.954;5.322;2022-10-16T04:24:08;2.57;;;1.87;;
21215;SDS011;10765;50.954;5.322;2022-10-16T04:26:35;2.37;;;1.60;;
21215;SDS011;10765;50.954;5.322;2022-10-16T04:29:02;3.07;;;2.07;;
21215;SDS011;10765;50.954;5.322;2022-10-16T04:31:30;3.60;;;1.73;;
21215;SDS011;10765;50.954;5.322;2022-10-16T04:33:58;3.93;;;2.07;;
21215;SDS011;10765;50.954;5.322;2022-10-16T04:36:25;5.33;;;1.83;;
21215;SDS011;10765;50.954;5.322;2022-10-16T04:38:52;5.27;;;1.90;;
21215;SDS011;10765;50.954;5.322;2022-10-16T04:41:18;3.70;;;1.90;;
21215;SDS011;10765;50.954;5.322;2022-10-16T04:43:45;4.80;;;1.80;;
21215;SDS011;10765;50.954;5.322;2022-10-16T04:46:12;2.17;;;1.97;;
21215;SDS011;10765;50.954;5.322;2022-10-16T04:48:40;2.20;;;1.80;;
21215;SDS011;10765;50.954;5.322;2022-10-16T04:51:07;3.50;;;2.10;;
21215;SDS011;10765;50.954;5.322;2022-10-16T04:53:34;2.57;;;2.37;;
21215;SDS011;10765;50.954;5.322;2022-10-16T04:56:01;3.07;;;1.97;;
21215;SDS011;10765;50.954;5.322;2022-10-16T04:58:28;3.73;;;2.50;;
21215;SDS011;10765;50.954;5.322;2022-10-16T05:00:55;5.47;;;2.10;;
21215;SDS011;10765;50.954;5.322;2022-10-16T05:03:22;4.03;;;2.50;;
21215;SDS011;10765;50.954;5.322;2022-10-16T05:05:50;2.63;;;2.43;;
21215;SDS011;10765;50.954;5.322;2022-10-16T05:08:17;2.67;;;2.47;;
21215;SDS011;10765;50.954;5.322;2022-10-16T05:10:44;2.63;;;2.33;;
21215;SDS011;10765;50.954;5.322;2022-10-16T05:13:11;2.60;;;2.40;;
21215;SDS011;10765;50.954;5.322;2022-10-16T05:15:38;2.77;;;2.47;;
21215;SDS011;10765;50.954;5.322;2022-10-16T05:18:05;4.80;;;2.73;;
21215;SDS011;10765;50.954;5.322;2022-10-16T05:20:32;3.73;;;2.33;;
21215;SDS011;10765;50.954;5.322;2022-10-16T05:23:00;2.93;;;2.70;;
21215;SDS011;10765;50.954;5.322;2022-10-16T05:25:27;3.93;;;2.77;;
21215;SDS011;10765;50.954;5.322;2022-10-16T05:27:54;3.87;;;2.87;;
21215;SDS011;10765;50.954;5.322;2022-10-16T05:30:21;5.23;;;2.77;;
21215;SDS011;10765;50.954;5.322;2022-10-16T05:32:48;4.80;;;3.27;;
21215;SDS011;10765;50.954;5.322;2022-10-16T05:35:16;5.80;;;3.00;;
21215;SDS011;10765;50.954;5.322;2022-10-16T05:37:44;3.77;;;2.83;;
21215;SDS011;10765;50.954;5.322;2022-10-16T05:40:12;4.63;;;3.23;;
21215;SDS011;10765;50.954;5.322;2022-10-16T05:42:40;3.40;;;2.83;;
21215;SDS011;10765;50.954;5.322;2022-10-16T05:45:07;4.80;;;3.17;;
21215;SDS011;10765;50.954;5.322;2022-10-16T05:47:36;3.60;;;2.90;;
21215;SDS011;10765;50.954;5.322;2022-10-16T05:50:03;3.43;;;3.13;;
21215;SDS011;10765;50.954;5.322;2022-10-16T05:52:30;4.10;;;3.00;;
21215;SDS011;10765;50.954;5.322;2022-10-16T05:54:57;4.70;;;3.60;;
21215;SDS011;10765;50.954;5.322;2022-10-16T05:57:25;3.70;;;3.40;;
21215;SDS011;10765;50.954;5.322;2022-10-16T05:59:52;4.10;;;3.70;;
21215;SDS011;10765;50.954;5.322;2022-10-16T06:02:19;4.07;;;3.50;;
21215;SDS011;10765;50.954;5.322;2022-10-16T06:04:46;4.80;;;3.53;;
21215;SDS011;10765;50.954;5.322;2022-10-16T06:07:13;6.67;;;3.40;;
21215;SDS011;10765;50.954;5.322;2022-10-16T06:09:39;5.73;;;3.43;;
21215;SDS011;10765;50.954;5.322;2022-10-16T06:12:06;3.43;;;3.13;;
21215;SDS011;10765;50.954;5.322;2022-10-16T06:14:35;5.37;;;3.57;;
21215;SDS011;10765;50.954;5.322;2022-10-16T06:17:02;5.20;;;3.47;;
21215;SDS011;10765;50.954;5.322;2022-10-16T06:19:28;4.83;;;3.17;;
21215;SDS011;10765;50.954;5.322;2022-10-16T06:21:56;5.63;;;3.43;;
21215;SDS011;10765;50.954;5.322;2022-10-16T06:24:23;6.20;;;3.83;;
21215;SDS011;10765;50.954;5.322;2022-10-16T06:26:50;3.47;;;3.20;;
21215;SDS011;10765;50.954;5.322;2022-10-16T06:29:17;5.60;;;3.77;;
21215;SDS011;10765;50.954;5.322;2022-10-16T06:31:45;3.57;;;2.90;;
21215;SDS011;10765;50.954;5.322;2022-10-16T06:34:12;4.27;;;3.13;;
21215;SDS011;10765;50.954;5.322;2022-10-16T06:36:39;4.03;;;3.10;;
21215;SDS011;10765;50.954;5.322;2022-10-16T06:39:08;3.97;;;3.27;;
21215;SDS011;10765;50.954;5.322;2022-10-16T06:41:35;4.30;;;3.30;;
21215;SDS011;10765;50.954;5.322;2022-10-16T06:44:05;4.27;;;3.30;;
21215;SDS011;10765;50.954;5.322;2022-10-16T06:46:33;4.57;;;3.47;;
21215;SDS011;10765;50.954;5.322;2022-10-16T06:49:01;5.00;;;3.40;;
21215;SDS011;10765;50.954;5.322;2022-10-16T06:51:28;5.93;;;3.40;;
21215;SDS011;10765;50.954;5.322;2022-10-16T06:53:57;3.67;;;3.33;;
21215;SDS011;10765;50.954;5.322;2022-10-16T06:56:24;4.93;;;3.30;;
21215;SDS011;10765;50.954;5.322;2022-10-16T06:58:54;4.00;;;3.60;;
21215;SDS011;10765;50.954;5.322;2022-10-16T07:01:22;6.67;;;2.87;;
21215;SDS011;10765;50.954;5.322;2022-10-16T07:03:50;4.60;;;2.53;;
21215;SDS011;10765;50.954;5.322;2022-10-16T07:06:19;2.57;;;2.07;;
21215;SDS011;10765;50.954;5.322;2022-10-16T07:08:47;2.73;;;1.60;;
21215;SDS011;10765;50.954;5.322;2022-10-16T07:11:15;2.80;;;1.30;;
21215;SDS011;10765;50.954;5.322;2022-10-16T07:13:44;2.57;;;1.30;;
21215;SDS011;10765;50.954;5.322;2022-10-16T07:16:13;3.43;;;1.47;;
21215;SDS011;10765;50.954;5.322;2022-10-16T07:18:41;2.90;;;1.07;;
21215;SDS011;10765;50.954;5.322;2022-10-16T07:21:11;2.93;;;1.07;;
21215;SDS011;10765;50.954;5.322;2022-10-16T07:23:41;2.13;;;1.10;;
21215;SDS011;10765;50.954;5.322;2022-10-16T07:26:08;2.43;;;1.00;;
21215;SDS011;10765;50.954;5.322;2022-10-16T07:28:35;1.50;;;1.20;;
21215;SDS011;10765;50.954;5.322;2022-10-16T07:31:03;3.33;;;1.40;;
21215;SDS011;10765;50.954;5.322;2022-10-16T07:33:32;2.60;;;1.10;;
21215;SDS011;10765;50.954;5.322;2022-10-16T07:36:00;2.47;;;1.10;;
21215;SDS011;10765;50.954;5.322;2022-10-16T07:38:27;1.90;;;1.20;;
21215;SDS011;10765;50.954;5.322;2022-10-16T07:40:59;1.37;;;0.80;;
21215;SDS011;10765;50.954;5.322;2022-10-16T07:43:27;1.23;;;1.00;;
21215;SDS011;10765;50.954;5.322;2022-10-16T07:45:54;1.77;;;1.00;;
21215;SDS011;10765;50.954;5.322;2022-10-16T07:48:22;4.13;;;1.03;;
21215;SDS011;10765;50.954;5.322;2022-10-16T07:50:49;1.27;;;1.00;;
21215;SDS011;10765;50.954;5.322;2022-10-16T07:53:16;7.93;;;1.47;;
21215;SDS011;10765;50.954;5.322;2022-10-16T07:55:43;2.23;;;1.33;;
21215;SDS011;10765;50.954;5.322;2022-10-16T07:58:11;2.73;;;0.90;;
21215;SDS011;10765;50.954;5.322;2022-10-16T08:00:38;1.90;;;1.00;;
21215;SDS011;10765;50.954;5.322;2022-10-16T08:03:05;2.70;;;1.10;;
21215;SDS011;10765;50.954;5.322;2022-10-16T08:05:32;1.30;;;1.07;;
21215;SDS011;10765;50.954;5.322;2022-10-16T08:08:00;3.17;;;1.03;;
21215;SDS011;10765;50.954;5.322;2022-10-16T08:10:27;1.53;;;0.90;;
21215;SDS011;10765;50.954;5.322;2022-10-16T08:12:55;1.83;;;0.80;;
21215;SDS011;10765;50.954;5.322;2022-10-16T08:15:23;2.40;;;0.97;;
21215;SDS011;10765;50.954;5.322;2022-10-16T08:17:57;1.40;;;1.10;;
21215;SDS011;10765;50.954;5.322;2022-10-16T08:20:25;5.93;;;1.30;;
21215;SDS011;10765;50.954;5.322;2022-10-16T08:22:53;2.63;;;1.07;;
21215;SDS011;10765;50.954;5.322;2022-10-16T08:25:20;1.60;;;1.00;;
21215;SDS011;10765;50.954;5.322;2022-10-16T08:27:48;3.87;;;1.30;;
21215;SDS011;10765;50.954;5.322;2022-10-16T08:30:15;4.60;;;1.03;;
21215;SDS011;10765;50.954;5.322;2022-10-16T08:32:44;2.77;;;0.93;;
21215;SDS011;10765;50.954;5.322;2022-10-16T08:35:12;2.53;;;0.90;;
21215;SDS011;10765;50.954;5.322;2022-10-16T08:37:40;1.77;;;0.90;;
21215;SDS011;10765;50.954;5.322;2022-10-16T08:40:11;1.23;;;0.90;;
21215;SDS011;10765;50.954;5.322;2022-10-16T08:42:47;1.20;;;1.10;;
21215;SDS011;10765;50.954;5.322;2022-10-16T08:45:35;1.77;;;0.90;;
21215;SDS011;10765;50.954;5.322;2022-10-16T08:48:16;4.30;;;1.23;;
21215;SDS011;10765;50.954;5.322;2022-10-16T08:50:48;4.70;;;1.40;;
21215;SDS011;10765;50.954;5.322;2022-10-16T08:53:18;2.57;;;1.37;;
21215;SDS011;10765;50.954;5.322;2022-10-16T08:55:49;1.40;;;1.03;;
21215;SDS011;10765;50.954;5.322;2022-10-16T08:58:18;2.30;;;1.30;;
21215;SDS011;10765;50.954;5.322;2022-10-16T09:00:46;2.27;;;1.10;;
21215;SDS011;10765;50.954;5.322;2022-10-16T09:03:23;3.63;;;1.00;;
21215;SDS011;10765;50.954;5.322;2022-10-16T09:06:26;3.13;;;1.20;;
21215;SDS011;10765;50.954;5.322;2022-10-16T09:09:06;2.57;;;1.00;;
21215;SDS011;10765;50.954;5.322;2022-10-16T09:11:45;1.23;;;1.13;;
21215;SDS011;10765;50.954;5.322;2022-10-16T09:14:31;2.77;;;1.20;;
21215;SDS011;10765;50.954;5.322;2022-10-16T09:17:07;2.07;;;1.00;;
21215;SDS011;10765;50.954;5.322;2022-10-16T09:19:48;2.97;;;1.03;;
21215;SDS011;10765;50.954;5.322;2022-10-16T09:22:19;3.50;;;1.30;;
21215;SDS011;10765;50.954;5.322;2022-10-16T09:24:51;2.40;;;1.00;;
21215;SDS011;10765;50.954;5.322;2022-10-16T09:27:18;2.53;;;1.17;;
21215;SDS011;10765;50.954;5.322;2022-10-16T09:29:45;2.53;;;0.90;;
21215;SDS011;10765;50.954;5.322;2022-10-16T09:32:12;3.77;;;1.20;;
21215;SDS011;10765;50.954;5.322;2022-10-16T09:34:42;2.23;;;1.23;;
21215;SDS011;10765;50.954;5.322;2022-10-16T09:37:16;2.60;;;1.40;;
21215;SDS011;10765;50.954;5.322;2022-10-16T09:39:45;2.23;;;1.10;;
21215;SDS011;10765;50.954;5.322;2022-10-16T09:42:14;1.73;;;0.90;;
21215;SDS011;10765;50.954;5.322;2022-10-16T09:44:46;2.93;;;1.40;;
21215;SDS011;10765;50.954;5.322;2022-10-16T09:47:15;2.73;;;1.20;;
21215;SDS011;10765;50.954;5.322;2022-10-16T09:49:50;3.33;;;1.00;;
21215;SDS011;10765;50.954;5.322;2022-10-16T09:52:19;3.37;;;1.10;;
21215;SDS011;10765;50.954;5.322;2022-10-16T09:54:51;3.97;;;1.40;;
21215;SDS011;10765;50.954;5.322;2022-10-16T09:57:19;1.73;;;1.20;;
21215;SDS011;10765;50.954;5.322;2022-10-16T09:59:47;3.90;;;1.20;;
21215;SDS011;10765;50.954;5.322;2022-10-16T10:02:15;3.77;;;1.27;;
21215;SDS011;10765;50.954;5.322;2022-10-16T10:04:47;2.10;;;1.00;;
21215;SDS011;10765;50.954;5.322;2022-10-16T10:07:23;2.40;;;1.30;;
21215;SDS011;10765;50.954;5.322;2022-10-16T10:09:52;1.70;;;1.10;;
21215;SDS011;10765;50.954;5.322;2022-10-16T10:12:21;2.70;;;1.20;;
21215;SDS011;10765;50.954;5.322;2022-10-16T10:14:50;4.00;;;1.60;;
21215;SDS011;10765;50.954;5.322;2022-10-16T10:17:19;3.97;;;1.40;;
21215;SDS011;10765;50.954;5.322;2022-10-16T10:19:48;2.87;;;1.20;;
21215;SDS011;10765;50.954;5.322;2022-10-16T10:22:17;3.20;;;1.40;;
21215;SDS011;10765;50.954;5.322;2022-10-16T10:24:56;4.27;;;1.40;;
21215;SDS011;10765;50.954;5.322;2022-10-16T10:27:32;3.43;;;1.00;;
21215;SDS011;10765;50.954;5.322;2022-10-16T10:30:07;1.97;;;0.97;;
21215;SDS011;10765;50.954;5.322;2022-10-16T10:32:43;2.93;;;1.00;;
21215;SDS011;10765;50.954;5.322;2022-10-16T10:35:18;2.43;;;1.07;;
21215;SDS011;10765;50.954;5.322;2022-10-16T10:38:00;5.77;;;1.70;;
21215;SDS011;10765;50.954;5.322;2022-10-16T10:40:38;2.40;;;1.30;;
21215;SDS011;10765;50.954;5.322;2022-10-16T10:43:15;2.37;;;1.30;;
21215;SDS011;10765;50.954;5.322;2022-10-16T10:45:51;2.43;;;1.30;;
21215;SDS011;10765;50.954;5.322;2022-10-16T10:48:28;5.43;;;1.30;;
21215;SDS011;10765;50.954;5.322;2022-10-16T10:51:13;1.77;;;0.80;;
21215;SDS011;10765;50.954;5.322;2022-10-16T10:53:50;3.33;;;1.10;;
21215;SDS011;10765;50.954;5.322;2022-10-16T10:56:29;3.53;;;1.43;;
21215;SDS011;10765;50.954;5.322;2022-10-16T10:59:14;3.43;;;1.10;;
21215;SDS011;10765;50.954;5.322;2022-10-16T11:01:59;2.13;;;0.87;;
21215;SDS011;10765;50.954;5.322;2022-10-16T11:04:35;3.73;;;1.20;;
21215;SDS011;10765;50.954;5.322;2022-10-16T11:07:15;2.73;;;1.27;;
21215;SDS011;10765;50.954;5.322;2022-10-16T11:09:48;3.10;;;1.17;;
21215;SDS011;10765;50.954;5.322;2022-10-16T11:12:20;1.67;;;0.90;;
21215;SDS011;10765;50.954;5.322;2022-10-16T11:14:51;2.63;;;1.10;;
21215;SDS011;10765;50.954;5.322;2022-10-16T11:17:22;2.37;;;1.30;;
21215;SDS011;10765;50.954;5.322;2022-10-16T11:19:53;1.87;;;1.00;;
21215;SDS011;10765;50.954;5.322;2022-10-16T11:22:26;2.17;;;0.90;;
21215;SDS011;10765;50.954;5.322;2022-10-16T11:25:02;3.90;;;1.20;;
21215;SDS011;10765;50.954;5.322;2022-10-16T11:27:38;2.30;;;1.00;;
21215;SDS011;10765;50.954;5.322;2022-10-16T11:30:12;4.07;;;1.20;;
21215;SDS011;10765;50.954;5.322;2022-10-16T11:32:45;2.83;;;0.90;;
21215;SDS011;10765;50.954;5.322;2022-10-16T11:35:22;3.10;;;1.00;;
21215;SDS011;10765;50.954;5.322;2022-10-16T11:37:56;2.43;;;0.77;;
21215;SDS011;10765;50.954;5.322;2022-10-16T11:40:28;2.97;;;0.90;;
21215;SDS011;10765;50.954;5.322;2022-10-16T11:43:00;1.90;;;0.97;;
21215;SDS011;10765;50.954;5.322;2022-10-16T11:45:33;2.47;;;0.97;;
21215;SDS011;10765;50.954;5.322;2022-10-16T11:48:07;2.97;;;1.17;;
21215;SDS011;10765;50.954;5.322;2022-10-16T11:50:45;1.77;;;1.03;;
21215;SDS011;10765;50.954;5.322;2022-10-16T11:53:20;3.50;;;0.80;;
21215;SDS011;10765;50.954;5.322;2022-10-16T11:55:54;2.33;;;1.00;;
21215;SDS011;10765;50.954;5.322;2022-10-16T11:58:22;1.53;;;0.83;;
21215;SDS011;10765;50.954;5.322;2022-10-16T12:00:54;4.07;;;0.87;;
21215;SDS011;10765;50.954;5.322;2022-10-16T12:03:27;2.07;;;0.93;;
21215;SDS011;10765;50.954;5.322;2022-10-16T12:06:10;3.57;;;1.07;;
21215;SDS011;10765;50.954;5.322;2022-10-16T12:08:48;3.00;;;1.00;;
21215;SDS011;10765;50.954;5.322;2022-10-16T12:11:22;3.40;;;1.00;;
21215;SDS011;10765;50.954;5.322;2022-10-16T12:14:03;3.00;;;0.90;;
21215;SDS011;10765;50.954;5.322;2022-10-16T12:16:51;3.70;;;0.93;;
21215;SDS011;10765;50.954;5.322;2022-10-16T12:19:20;2.33;;;0.70;;
21215;SDS011;10765;50.954;5.322;2022-10-16T12:21:49;2.07;;;0.97;;
21215;SDS011;10765;50.954;5.322;2022-10-16T12:24:21;1.27;;;0.60;;
21215;SDS011;10765;50.954;5.322;2022-10-16T12:26:57;2.40;;;0.90;;
21215;SDS011;10765;50.954;5.322;2022-10-16T12:29:28;3.17;;;0.97;;
21215;SDS011;10765;50.954;5.322;2022-10-16T12:31:59;2.27;;;0.70;;
21215;SDS011;10765;50.954;5.322;2022-10-16T12:34:28;1.50;;;0.87;;
21215;SDS011;10765;50.954;5.322;2022-10-16T12:37:07;3.97;;;0.80;;
21215;SDS011;10765;50.954;5.322;2022-10-16T12:39:36;3.00;;;0.90;;
21215;SDS011;10765;50.954;5.322;2022-10-16T12:42:05;5.43;;;1.30;;
21215;SDS011;10765;50.954;5.322;2022-10-16T12:44:49;2.67;;;0.93;;
21215;SDS011;10765;50.954;5.322;2022-10-16T12:47:20;4.30;;;0.93;;
21215;SDS011;10765;50.954;5.322;2022-10-16T12:49:51;3.57;;;0.77;;
21215;SDS011;10765;50.954;5.322;2022-10-16T12:52:24;1.77;;;0.70;;
21215;SDS011;10765;50.954;5.322;2022-10-16T12:54:55;2.17;;;0.60;;
21215;SDS011;10765;50.954;5.322;2022-10-16T12:57:32;2.43;;;0.90;;
21215;SDS011;10765;50.954;5.322;2022-10-16T13:00:10;1.17;;;0.63;;
21215;SDS011;10765;50.954;5.322;2022-10-16T13:06:03;4.90;;;0.90;;
21215;SDS011;10765;50.954;5.322;2022-10-16T13:08:44;1.70;;;0.67;;
21215;SDS011;10765;50.954;5.322;2022-10-16T13:11:20;1.00;;;0.57;;
21215;SDS011;10765;50.954;5.322;2022-10-16T13:14:09;2.00;;;0.70;;
21215;SDS011;10765;50.954;5.322;2022-10-16T13:16:50;3.70;;;1.00;;
21215;SDS011;10765;50.954;5.322;2022-10-16T13:19:25;2.17;;;0.63;;
21215;SDS011;10765;50.954;5.322;2022-10-16T13:21:59;3.40;;;0.60;;
21215;SDS011;10765;50.954;5.322;2022-10-16T13:24:40;1.67;;;0.70;;
21215;SDS011;10765;50.954;5.322;2022-10-16T13:27:18;0.80;;;0.60;;
21215;SDS011;10765;50.954;5.322;2022-10-16T13:30:10;2.63;;;1.00;;
21215;SDS011;10765;50.954;5.322;2022-10-16T13:32:39;3.70;;;0.83;;
21215;SDS011;10765;50.954;5.322;2022-10-16T13:35:18;3.27;;;0.70;;
21215;SDS011;10765;50.954;5.322;2022-10-16T13:37:46;3.20;;;0.90;;
21215;SDS011;10765;50.954;5.322;2022-10-16T13:40:17;1.87;;;0.70;;
21215;SDS011;10765;50.954;5.322;2022-10-16T13:42:46;1.57;;;0.90;;
21215;SDS011;10765;50.954;5.322;2022-10-16T13:45:18;1.87;;;0.80;;
21215;SDS011;10765;50.954;5.322;2022-10-16T13:47:46;2.87;;;0.63;;
21215;SDS011;10765;50.954;5.322;2022-10-16T13:50:14;3.40;;;0.90;;
21215;SDS011;10765;50.954;5.322;2022-10-16T13:52:42;1.73;;;0.70;;
21215;SDS011;10765;50.954;5.322;2022-10-16T13:55:12;1.60;;;0.70;;
21215;SDS011;10765;50.954;5.322;2022-10-16T13:57:40;1.40;;;0.70;;
21215;SDS011;10765;50.954;5.322;2022-10-16T14:00:22;1.63;;;0.80;;
21215;SDS011;10765;50.954;5.322;2022-10-16T14:02:55;1.37;;;0.90;;
21215;SDS011;10765;50.954;5.322;2022-10-16T14:05:27;2.40;;;0.80;;
21215;SDS011;10765;50.954;5.322;2022-10-16T14:07:55;2.10;;;0.70;;
21215;SDS011;10765;50.954;5.322;2022-10-16T14:10:24;1.67;;;0.70;;
21215;SDS011;10765;50.954;5.322;2022-10-16T14:12:54;1.67;;;0.70;;
21215;SDS011;10765;50.954;5.322;2022-10-16T14:15:26;1.50;;;0.90;;
21215;SDS011;10765;50.954;5.322;2022-10-16T14:17:55;1.27;;;0.50;;
21215;SDS011;10765;50.954;5.322;2022-10-16T14:20:23;2.53;;;0.70;;
21215;SDS011;10765;50.954;5.322;2022-10-16T14:22:59;0.97;;;0.60;;
21215;SDS011;10765;50.954;5.322;2022-10-16T14:25:27;1.47;;;0.63;;
21215;SDS011;10765;50.954;5.322;2022-10-16T14:27:57;2.17;;;0.70;;
21215;SDS011;10765;50.954;5.322;2022-10-16T14:30:30;1.37;;;0.80;;
21215;SDS011;10765;50.954;5.322;2022-10-16T14:32:59;2.03;;;0.80;;
21215;SDS011;10765;50.954;5.322;2022-10-16T14:35:29;2.30;;;0.83;;
21215;SDS011;10765;50.954;5.322;2022-10-16T14:37:58;3.47;;;0.80;;
21215;SDS011;10765;50.954;5.322;2022-10-16T14:40:27;2.23;;;0.80;;
21215;SDS011;10765;50.954;5.322;2022-10-16T14:42:55;2.10;;;0.77;;
21215;SDS011;10765;50.954;5.322;2022-10-16T14:45:23;1.67;;;0.70;;
21215;SDS011;10765;50.954;5.322;2022-10-16T14:47:54;3.60;;;0.97;;
21215;SDS011;10765;50.954;5.322;2022-10-16T14:50:23;0.67;;;0.67;;
21215;SDS011;10765;50.954;5.322;2022-10-16T14:52:50;1.67;;;0.63;;
21215;SDS011;10765;50.954;5.322;2022-10-16T14:55:17;2.07;;;0.80;;
21215;SDS011;10765;50.954;5.322;2022-10-16T14:57:45;1.37;;;0.70;;
21215;SDS011;10765;50.954;5.322;2022-10-16T15:00:14;3.60;;;0.73;;
21215;SDS011;10765;50.954;5.322;2022-10-16T15:02:44;1.40;;;0.70;;
21215;SDS011;10765;50.954;5.322;2022-10-16T15:05:14;1.83;;;0.80;;
21215;SDS011;10765;50.954;5.322;2022-10-16T15:07:43;1.23;;;0.77;;
21215;SDS011;10765;50.954;5.322;2022-10-16T15:10:10;1.27;;;0.90;;
21215;SDS011;10765;50.954;5.322;2022-10-16T15:12:38;2.10;;;0.80;;